sensor_id;sensor_type;location;lat;lon;timestamp;P1;durP1;ratioP1;P2;durP2;ratioP2
53389;SDS011;39288;42.970;1.524;2022-10-31T00:00:24;12.17;;;5.20;;
53389;SDS011;39288;42.970;1.524;2022-10-31T00:01:28;15.23;;;5.63;;
53389;SDS011;39288;42.970;1.524;2022-10-31T00:02:34;9.82;;;4.82;;
53389;SDS011;39288;42.970;1.524;2022-10-31T00:03:34;10.23;;;5.10;;
53389;SDS011;39288;42.970;1.524;2022-10-31T00:04:35;11.17;;;5.37;;
53389;SDS011;39288;42.970;1.524;2022-10-31T00:05:35;8.47;;;5.07;;
53389;SDS011;39288;42.970;1.524;2022-10-31T00:06:36;12.43;;;5.57;;
53389;SDS011;39288;42.970;1.524;2022-10-31T00:07:36;13.90;;;5.43;;
53389;SDS011;39288;42.970;1.524;2022-10-31T00:08:37;9.87;;;4.90;;
53389;SDS011;39288;42.970;1.524;2022-10-31T00:09:37;8.93;;;5.13;;
53389;SDS011;39288;42.970;1.524;2022-10-31T00:10:38;9.60;;;5.07;;
53389;SDS011;39288;42.970;1.524;2022-10-31T00:11:41;10.00;;;5.43;;
53389;SDS011;39288;42.970;1.524;2022-10-31T00:12:42;8.90;;;4.87;;
53389;SDS011;39288;42.970;1.524;2022-10-31T00:13:42;9.77;;;5.07;;
53389;SDS011;39288;42.970;1.524;2022-10-31T00:14:43;13.47;;;5.40;;
53389;SDS011;39288;42.970;1.524;2022-10-31T00:15:43;10.43;;;5.03;;
53389;SDS011;39288;42.970;1.524;2022-10-31T00:16:44;11.77;;;5.27;;
53389;SDS011;39288;42.970;1.524;2022-10-31T00:17:44;7.57;;;4.60;;
53389;SDS011;39288;42.970;1.524;2022-10-31T00:18:47;9.80;;;4.97;;
53389;SDS011;39288;42.970;1.524;2022-10-31T00:19:49;11.82;;;5.20;;
53389;SDS011;39288;42.970;1.524;2022-10-31T00:20:57;13.17;;;5.10;;
53389;SDS011;39288;42.970;1.524;2022-10-31T00:21:59;7.57;;;4.82;;
53389;SDS011;39288;42.970;1.524;2022-10-31T00:23:00;14.17;;;5.13;;
53389;SDS011;39288;42.970;1.524;2022-10-31T00:24:01;11.23;;;6.03;;
53389;SDS011;39288;42.970;1.524;2022-10-31T00:25:02;7.90;;;4.72;;
53389;SDS011;39288;42.970;1.524;2022-10-31T00:26:03;12.83;;;4.93;;
53389;SDS011;39288;42.970;1.524;2022-10-31T00:27:04;11.18;;;4.93;;
53389;SDS011;39288;42.970;1.524;2022-10-31T00:28:06;12.73;;;5.27;;
53389;SDS011;39288;42.970;1.524;2022-10-31T00:29:07;15.43;;;5.25;;
53389;SDS011;39288;42.970;1.524;2022-10-31T00:30:07;12.90;;;5.47;;
53389;SDS011;39288;42.970;1.524;2022-10-31T00:31:09;11.93;;;5.03;;
53389;SDS011;39288;42.970;1.524;2022-10-31T00:32:11;13.35;;;5.18;;
53389;SDS011;39288;42.970;1.524;2022-10-31T00:33:11;11.20;;;5.67;;
53389;SDS011;39288;42.970;1.524;2022-10-31T00:34:11;12.90;;;5.67;;
53389;SDS011;39288;42.970;1.524;2022-10-31T00:35:12;10.27;;;5.27;;
53389;SDS011;39288;42.970;1.524;2022-10-31T00:36:14;9.17;;;5.10;;
53389;SDS011;39288;42.970;1.524;2022-10-31T00:37:15;9.90;;;5.38;;
53389;SDS011;39288;42.970;1.524;2022-10-31T00:38:16;13.20;;;5.67;;
53389;SDS011;39288;42.970;1.524;2022-10-31T00:39:16;11.73;;;4.83;;
53389;SDS011;39288;42.970;1.524;2022-10-31T00:40:17;9.07;;;4.80;;
53389;SDS011;39288;42.970;1.524;2022-10-31T00:41:17;11.33;;;5.47;;
53389;SDS011;39288;42.970;1.524;2022-10-31T00:42:18;11.07;;;5.00;;
53389;SDS011;39288;42.970;1.524;2022-10-31T00:43:18;11.43;;;5.47;;
53389;SDS011;39288;42.970;1.524;2022-10-31T00:44:19;10.70;;;6.10;;
53389;SDS011;39288;42.970;1.524;2022-10-31T00:45:19;15.17;;;5.37;;
53389;SDS011;39288;42.970;1.524;2022-10-31T00:46:20;10.87;;;5.43;;
53389;SDS011;39288;42.970;1.524;2022-10-31T00:47:20;17.03;;;5.60;;
53389;SDS011;39288;42.970;1.524;2022-10-31T00:48:21;14.80;;;5.70;;
53389;SDS011;39288;42.970;1.524;2022-10-31T00:49:21;16.00;;;5.90;;
53389;SDS011;39288;42.970;1.524;2022-10-31T00:50:22;11.07;;;5.00;;
53389;SDS011;39288;42.970;1.524;2022-10-31T00:51:22;11.93;;;5.57;;
53389;SDS011;39288;42.970;1.524;2022-10-31T00:52:23;12.03;;;5.77;;
53389;SDS011;39288;42.970;1.524;2022-10-31T00:53:23;12.40;;;5.70;;
53389;SDS011;39288;42.970;1.524;2022-10-31T00:54:24;10.37;;;5.50;;
53389;SDS011;39288;42.970;1.524;2022-10-31T00:55:24;13.37;;;5.63;;
53389;SDS011;39288;42.970;1.524;2022-10-31T00:56:24;12.30;;;5.47;;
53389;SDS011;39288;42.970;1.524;2022-10-31T00:57:25;11.37;;;5.43;;
53389;SDS011;39288;42.970;1.524;2022-10-31T00:58:25;13.33;;;6.37;;
53389;SDS011;39288;42.970;1.524;2022-10-31T00:59:26;13.77;;;5.57;;
53389;SDS011;39288;42.970;1.524;2022-10-31T01:00:26;11.23;;;5.40;;
53389;SDS011;39288;42.970;1.524;2022-10-31T01:01:27;9.93;;;5.03;;
53389;SDS011;39288;42.970;1.524;2022-10-31T01:02:27;10.10;;;5.13;;
53389;SDS011;39288;42.970;1.524;2022-10-31T01:03:29;11.30;;;5.47;;
53389;SDS011;39288;42.970;1.524;2022-10-31T01:04:31;11.77;;;5.35;;
53389;SDS011;39288;42.970;1.524;2022-10-31T01:05:31;11.67;;;4.87;;
53389;SDS011;39288;42.970;1.524;2022-10-31T01:06:32;7.50;;;4.77;;
53389;SDS011;39288;42.970;1.524;2022-10-31T01:07:35;10.77;;;5.50;;
53389;SDS011;39288;42.970;1.524;2022-10-31T01:08:36;10.95;;;5.32;;
53389;SDS011;39288;42.970;1.524;2022-10-31T01:09:37;12.00;;;5.43;;
53389;SDS011;39288;42.970;1.524;2022-10-31T01:10:38;11.77;;;5.13;;
53389;SDS011;39288;42.970;1.524;2022-10-31T01:11:38;11.30;;;5.43;;
53389;SDS011;39288;42.970;1.524;2022-10-31T01:12:40;11.00;;;5.40;;
53389;SDS011;39288;42.970;1.524;2022-10-31T01:13:42;9.75;;;5.07;;
53389;SDS011;39288;42.970;1.524;2022-10-31T01:14:44;14.38;;;6.13;;
53389;SDS011;39288;42.970;1.524;2022-10-31T01:15:45;13.50;;;5.68;;
53389;SDS011;39288;42.970;1.524;2022-10-31T01:16:45;15.33;;;6.10;;
53389;SDS011;39288;42.970;1.524;2022-10-31T01:17:46;10.83;;;5.33;;
53389;SDS011;39288;42.970;1.524;2022-10-31T01:18:47;10.75;;;5.68;;
53389;SDS011;39288;42.970;1.524;2022-10-31T01:19:47;12.87;;;5.90;;
53389;SDS011;39288;42.970;1.524;2022-10-31T01:20:56;12.20;;;5.80;;
53389;SDS011;39288;42.970;1.524;2022-10-31T01:21:57;12.52;;;5.78;;
53389;SDS011;39288;42.970;1.524;2022-10-31T01:22:58;9.73;;;5.73;;
53389;SDS011;39288;42.970;1.524;2022-10-31T01:23:59;11.93;;;5.20;;
53389;SDS011;39288;42.970;1.524;2022-10-31T01:25:02;12.25;;;6.22;;
53389;SDS011;39288;42.970;1.524;2022-10-31T01:26:04;11.03;;;5.57;;
53389;SDS011;39288;42.970;1.524;2022-10-31T01:27:11;11.90;;;5.53;;
53389;SDS011;39288;42.970;1.524;2022-10-31T01:28:11;12.67;;;5.67;;
53389;SDS011;39288;42.970;1.524;2022-10-31T01:29:12;12.40;;;5.53;;
53389;SDS011;39288;42.970;1.524;2022-10-31T01:30:12;11.33;;;5.57;;
53389;SDS011;39288;42.970;1.524;2022-10-31T01:31:13;9.27;;;5.30;;
53389;SDS011;39288;42.970;1.524;2022-10-31T01:32:14;15.40;;;6.18;;
53389;SDS011;39288;42.970;1.524;2022-10-31T01:33:14;12.73;;;5.20;;
53389;SDS011;39288;42.970;1.524;2022-10-31T01:34:15;9.13;;;5.73;;
53389;SDS011;39288;42.970;1.524;2022-10-31T01:35:16;19.00;;;6.10;;
53389;SDS011;39288;42.970;1.524;2022-10-31T01:36:21;13.93;;;5.97;;
53389;SDS011;39288;42.970;1.524;2022-10-31T01:37:28;10.52;;;5.95;;
53389;SDS011;39288;42.970;1.524;2022-10-31T01:38:28;10.10;;;5.87;;
53389;SDS011;39288;42.970;1.524;2022-10-31T01:39:30;15.15;;;5.80;;
53389;SDS011;39288;42.970;1.524;2022-10-31T01:40:30;12.90;;;5.60;;
53389;SDS011;39288;42.970;1.524;2022-10-31T01:41:32;15.10;;;6.60;;
53389;SDS011;39288;42.970;1.524;2022-10-31T01:42:34;9.50;;;5.43;;
53389;SDS011;39288;42.970;1.524;2022-10-31T01:45:54;12.00;;;5.93;;
53389;SDS011;39288;42.970;1.524;2022-10-31T01:48:15;9.55;;;5.75;;
53389;SDS011;39288;42.970;1.524;2022-10-31T01:50:33;13.80;;;6.45;;
53389;SDS011;39288;42.970;1.524;2022-10-31T01:51:36;10.85;;;5.68;;
53389;SDS011;39288;42.970;1.524;2022-10-31T01:52:40;10.13;;;5.82;;
53389;SDS011;39288;42.970;1.524;2022-10-31T01:53:46;9.57;;;5.70;;
53389;SDS011;39288;42.970;1.524;2022-10-31T01:54:48;8.43;;;5.47;;
53389;SDS011;39288;42.970;1.524;2022-10-31T01:55:52;13.43;;;6.32;;
53389;SDS011;39288;42.970;1.524;2022-10-31T01:56:53;16.00;;;6.20;;
53389;SDS011;39288;42.970;1.524;2022-10-31T01:57:57;10.40;;;6.03;;
53389;SDS011;39288;42.970;1.524;2022-10-31T01:59:00;13.02;;;6.50;;
53389;SDS011;39288;42.970;1.524;2022-10-31T02:00:03;8.93;;;5.85;;
53389;SDS011;39288;42.970;1.524;2022-10-31T02:01:06;13.82;;;6.18;;
53389;SDS011;39288;42.970;1.524;2022-10-31T02:02:07;14.53;;;6.03;;
53389;SDS011;39288;42.970;1.524;2022-10-31T02:03:07;12.90;;;6.87;;
53389;SDS011;39288;42.970;1.524;2022-10-31T02:04:08;10.07;;;6.50;;
53389;SDS011;39288;42.970;1.524;2022-10-31T02:05:24;14.73;;;6.50;;
53389;SDS011;39288;42.970;1.524;2022-10-31T02:06:36;13.75;;;6.10;;
53389;SDS011;39288;42.970;1.524;2022-10-31T02:08:01;12.20;;;6.30;;
53389;SDS011;39288;42.970;1.524;2022-10-31T02:09:07;12.27;;;6.03;;
53389;SDS011;39288;42.970;1.524;2022-10-31T02:10:07;14.37;;;6.60;;
53389;SDS011;39288;42.970;1.524;2022-10-31T02:11:08;11.37;;;6.20;;
53389;SDS011;39288;42.970;1.524;2022-10-31T02:12:09;12.82;;;4.78;;
53389;SDS011;39288;42.970;1.524;2022-10-31T02:13:10;12.93;;;6.33;;
53389;SDS011;39288;42.970;1.524;2022-10-31T02:14:12;13.35;;;6.28;;
53389;SDS011;39288;42.970;1.524;2022-10-31T02:15:13;13.93;;;6.40;;
53389;SDS011;39288;42.970;1.524;2022-10-31T02:16:13;14.13;;;6.30;;
53389;SDS011;39288;42.970;1.524;2022-10-31T02:17:14;12.80;;;6.67;;
53389;SDS011;39288;42.970;1.524;2022-10-31T02:18:15;11.53;;;5.57;;
53389;SDS011;39288;42.970;1.524;2022-10-31T02:19:18;13.10;;;5.60;;
53389;SDS011;39288;42.970;1.524;2022-10-31T02:20:35;15.60;;;7.30;;
53389;SDS011;39288;42.970;1.524;2022-10-31T02:22:00;14.38;;;6.65;;
53389;SDS011;39288;42.970;1.524;2022-10-31T02:26:45;12.82;;;6.18;;
53389;SDS011;39288;42.970;1.524;2022-10-31T02:27:56;10.75;;;5.75;;
53389;SDS011;39288;42.970;1.524;2022-10-31T02:29:43;13.73;;;6.60;;
53389;SDS011;39288;42.970;1.524;2022-10-31T02:33:30;16.90;;;6.55;;
53389;SDS011;39288;42.970;1.524;2022-10-31T02:35:47;10.80;;;6.28;;
53389;SDS011;39288;42.970;1.524;2022-10-31T02:37:13;11.57;;;6.32;;
53389;SDS011;39288;42.970;1.524;2022-10-31T02:39:28;12.02;;;5.95;;
53389;SDS011;39288;42.970;1.524;2022-10-31T02:40:56;10.90;;;5.95;;
53389;SDS011;39288;42.970;1.524;2022-10-31T02:42:07;12.30;;;6.72;;
53389;SDS011;39288;42.970;1.524;2022-10-31T02:43:27;11.13;;;6.80;;
53389;SDS011;39288;42.970;1.524;2022-10-31T02:45:06;11.48;;;6.22;;
53389;SDS011;39288;42.970;1.524;2022-10-31T02:47:17;11.77;;;6.57;;
53389;SDS011;39288;42.970;1.524;2022-10-31T02:48:19;13.07;;;7.00;;
53389;SDS011;39288;42.970;1.524;2022-10-31T02:49:39;17.58;;;6.88;;
53389;SDS011;39288;42.970;1.524;2022-10-31T02:50:42;12.02;;;6.60;;
53389;SDS011;39288;42.970;1.524;2022-10-31T02:51:45;24.60;;;7.50;;
53389;SDS011;39288;42.970;1.524;2022-10-31T02:52:49;15.07;;;7.03;;
53389;SDS011;39288;42.970;1.524;2022-10-31T02:53:50;16.17;;;6.70;;
53389;SDS011;39288;42.970;1.524;2022-10-31T02:54:51;19.73;;;7.23;;
53389;SDS011;39288;42.970;1.524;2022-10-31T02:55:59;16.17;;;8.10;;
53389;SDS011;39288;42.970;1.524;2022-10-31T02:57:04;13.98;;;6.80;;
53389;SDS011;39288;42.970;1.524;2022-10-31T02:58:08;17.23;;;7.57;;
53389;SDS011;39288;42.970;1.524;2022-10-31T02:59:13;12.27;;;6.93;;
53389;SDS011;39288;42.970;1.524;2022-10-31T03:00:13;9.73;;;6.50;;
53389;SDS011;39288;42.970;1.524;2022-10-31T03:01:23;11.40;;;6.07;;
53389;SDS011;39288;42.970;1.524;2022-10-31T03:03:52;14.23;;;5.93;;
53389;SDS011;39288;42.970;1.524;2022-10-31T03:05:15;14.82;;;6.55;;
53389;SDS011;39288;42.970;1.524;2022-10-31T03:06:47;13.13;;;6.07;;
53389;SDS011;39288;42.970;1.524;2022-10-31T03:09:17;15.35;;;7.05;;
53389;SDS011;39288;42.970;1.524;2022-10-31T03:10:43;10.05;;;6.78;;
53389;SDS011;39288;42.970;1.524;2022-10-31T03:11:53;14.90;;;6.68;;
53389;SDS011;39288;42.970;1.524;2022-10-31T03:14:09;12.80;;;6.57;;
53389;SDS011;39288;42.970;1.524;2022-10-31T03:15:23;10.90;;;6.57;;
53389;SDS011;39288;42.970;1.524;2022-10-31T03:16:45;11.95;;;6.43;;
53389;SDS011;39288;42.970;1.524;2022-10-31T03:20:19;15.57;;;7.20;;
53389;SDS011;39288;42.970;1.524;2022-10-31T03:21:23;17.05;;;7.20;;
53389;SDS011;39288;42.970;1.524;2022-10-31T03:22:45;12.02;;;6.35;;
53389;SDS011;39288;42.970;1.524;2022-10-31T03:23:46;13.57;;;6.80;;
53389;SDS011;39288;42.970;1.524;2022-10-31T03:25:49;15.55;;;6.95;;
53389;SDS011;39288;42.970;1.524;2022-10-31T03:26:52;16.52;;;7.22;;
53389;SDS011;39288;42.970;1.524;2022-10-31T03:27:53;10.30;;;7.00;;
53389;SDS011;39288;42.970;1.524;2022-10-31T03:29:00;11.98;;;6.47;;
53389;SDS011;39288;42.970;1.524;2022-10-31T03:30:07;12.25;;;6.55;;
53389;SDS011;39288;42.970;1.524;2022-10-31T03:31:08;13.40;;;7.63;;
53389;SDS011;39288;42.970;1.524;2022-10-31T03:32:11;12.32;;;7.05;;
53389;SDS011;39288;42.970;1.524;2022-10-31T03:33:15;13.45;;;6.78;;
53389;SDS011;39288;42.970;1.524;2022-10-31T03:34:18;14.40;;;7.72;;
53389;SDS011;39288;42.970;1.524;2022-10-31T03:35:20;13.30;;;7.18;;
53389;SDS011;39288;42.970;1.524;2022-10-31T03:36:23;13.77;;;7.15;;
53389;SDS011;39288;42.970;1.524;2022-10-31T03:37:27;15.38;;;7.38;;
53389;SDS011;39288;42.970;1.524;2022-10-31T03:38:28;12.65;;;7.13;;
53389;SDS011;39288;42.970;1.524;2022-10-31T03:39:29;13.38;;;6.90;;
53389;SDS011;39288;42.970;1.524;2022-10-31T03:40:31;14.32;;;7.57;;
53389;SDS011;39288;42.970;1.524;2022-10-31T03:41:34;15.73;;;6.82;;
53389;SDS011;39288;42.970;1.524;2022-10-31T03:42:38;13.75;;;6.82;;
53389;SDS011;39288;42.970;1.524;2022-10-31T03:43:42;12.88;;;7.60;;
53389;SDS011;39288;42.970;1.524;2022-10-31T03:44:50;19.42;;;7.50;;
53389;SDS011;39288;42.970;1.524;2022-10-31T03:45:54;13.88;;;6.95;;
53389;SDS011;39288;42.970;1.524;2022-10-31T03:46:55;11.40;;;6.87;;
53389;SDS011;39288;42.970;1.524;2022-10-31T03:47:56;11.80;;;6.50;;
53389;SDS011;39288;42.970;1.524;2022-10-31T03:48:58;15.23;;;7.65;;
53389;SDS011;39288;42.970;1.524;2022-10-31T03:49:58;13.70;;;6.60;;
53389;SDS011;39288;42.970;1.524;2022-10-31T03:51:04;18.03;;;6.90;;
53389;SDS011;39288;42.970;1.524;2022-10-31T03:52:12;16.50;;;7.60;;
53389;SDS011;39288;42.970;1.524;2022-10-31T03:53:19;11.02;;;7.57;;
53389;SDS011;39288;42.970;1.524;2022-10-31T03:54:35;13.93;;;7.35;;
53389;SDS011;39288;42.970;1.524;2022-10-31T03:55:40;15.73;;;6.97;;
53389;SDS011;39288;42.970;1.524;2022-10-31T03:56:46;14.15;;;7.22;;
53389;SDS011;39288;42.970;1.524;2022-10-31T03:57:52;13.02;;;7.38;;
53389;SDS011;39288;42.970;1.524;2022-10-31T03:59:05;17.02;;;8.05;;
53389;SDS011;39288;42.970;1.524;2022-10-31T04:00:10;13.43;;;7.30;;
53389;SDS011;39288;42.970;1.524;2022-10-31T04:01:12;16.35;;;8.35;;
53389;SDS011;39288;42.970;1.524;2022-10-31T04:02:16;13.20;;;7.53;;
53389;SDS011;39288;42.970;1.524;2022-10-31T04:03:22;15.43;;;7.60;;
53389;SDS011;39288;42.970;1.524;2022-10-31T04:04:26;12.88;;;6.78;;
53389;SDS011;39288;42.970;1.524;2022-10-31T04:05:27;13.50;;;6.93;;
53389;SDS011;39288;42.970;1.524;2022-10-31T04:06:28;12.95;;;7.18;;
53389;SDS011;39288;42.970;1.524;2022-10-31T04:07:31;13.45;;;6.97;;
53389;SDS011;39288;42.970;1.524;2022-10-31T04:08:33;13.75;;;7.88;;
53389;SDS011;39288;42.970;1.524;2022-10-31T04:09:42;10.90;;;6.63;;
53389;SDS011;39288;42.970;1.524;2022-10-31T04:10:44;13.23;;;6.47;;
53389;SDS011;39288;42.970;1.524;2022-10-31T04:11:51;12.05;;;7.72;;
53389;SDS011;39288;42.970;1.524;2022-10-31T04:12:55;16.58;;;7.35;;
53389;SDS011;39288;42.970;1.524;2022-10-31T04:14:01;14.65;;;7.70;;
53389;SDS011;39288;42.970;1.524;2022-10-31T04:15:02;12.75;;;8.10;;
53389;SDS011;39288;42.970;1.524;2022-10-31T04:16:04;12.65;;;7.22;;
53389;SDS011;39288;42.970;1.524;2022-10-31T04:17:07;16.45;;;8.05;;
53389;SDS011;39288;42.970;1.524;2022-10-31T04:18:09;14.65;;;7.18;;
53389;SDS011;39288;42.970;1.524;2022-10-31T04:19:10;13.63;;;8.27;;
53389;SDS011;39288;42.970;1.524;2022-10-31T04:20:14;14.10;;;7.47;;
53389;SDS011;39288;42.970;1.524;2022-10-31T04:21:16;15.82;;;6.97;;
53389;SDS011;39288;42.970;1.524;2022-10-31T04:22:16;10.83;;;6.73;;
53389;SDS011;39288;42.970;1.524;2022-10-31T04:23:20;14.93;;;7.27;;
53389;SDS011;39288;42.970;1.524;2022-10-31T04:24:24;13.27;;;7.03;;
53389;SDS011;39288;42.970;1.524;2022-10-31T04:25:24;15.00;;;7.37;;
53389;SDS011;39288;42.970;1.524;2022-10-31T04:26:25;12.23;;;7.50;;
53389;SDS011;39288;42.970;1.524;2022-10-31T04:27:25;19.17;;;7.50;;
53389;SDS011;39288;42.970;1.524;2022-10-31T04:28:26;13.23;;;6.83;;
53389;SDS011;39288;42.970;1.524;2022-10-31T04:29:26;12.50;;;6.80;;
53389;SDS011;39288;42.970;1.524;2022-10-31T04:30:27;15.10;;;7.50;;
53389;SDS011;39288;42.970;1.524;2022-10-31T04:31:27;13.43;;;7.60;;
53389;SDS011;39288;42.970;1.524;2022-10-31T04:32:31;13.13;;;8.13;;
53389;SDS011;39288;42.970;1.524;2022-10-31T04:33:31;17.08;;;7.85;;
53389;SDS011;39288;42.970;1.524;2022-10-31T04:34:32;13.37;;;7.73;;
53389;SDS011;39288;42.970;1.524;2022-10-31T04:35:32;14.60;;;8.23;;
53389;SDS011;39288;42.970;1.524;2022-10-31T04:36:32;15.43;;;8.10;;
53389;SDS011;39288;42.970;1.524;2022-10-31T04:37:33;11.70;;;8.20;;
53389;SDS011;39288;42.970;1.524;2022-10-31T04:38:33;15.07;;;7.93;;
53389;SDS011;39288;42.970;1.524;2022-10-31T04:39:34;12.40;;;7.40;;
53389;SDS011;39288;42.970;1.524;2022-10-31T04:40:34;16.93;;;8.30;;
53389;SDS011;39288;42.970;1.524;2022-10-31T04:41:35;18.23;;;8.83;;
53389;SDS011;39288;42.970;1.524;2022-10-31T04:42:35;11.37;;;7.30;;
53389;SDS011;39288;42.970;1.524;2022-10-31T04:43:36;12.85;;;8.57;;
53389;SDS011;39288;42.970;1.524;2022-10-31T04:44:36;12.67;;;7.37;;
53389;SDS011;39288;42.970;1.524;2022-10-31T04:45:37;16.60;;;8.37;;
53389;SDS011;39288;42.970;1.524;2022-10-31T04:46:37;11.20;;;6.70;;
53389;SDS011;39288;42.970;1.524;2022-10-31T04:47:38;12.07;;;8.00;;
53389;SDS011;39288;42.970;1.524;2022-10-31T04:48:38;14.30;;;7.93;;
53389;SDS011;39288;42.970;1.524;2022-10-31T04:49:41;15.40;;;8.67;;
53389;SDS011;39288;42.970;1.524;2022-10-31T04:50:42;13.57;;;8.07;;
53389;SDS011;39288;42.970;1.524;2022-10-31T04:51:42;18.40;;;8.67;;
53389;SDS011;39288;42.970;1.524;2022-10-31T04:52:43;14.60;;;8.67;;
53389;SDS011;39288;42.970;1.524;2022-10-31T04:53:44;16.20;;;8.57;;
53389;SDS011;39288;42.970;1.524;2022-10-31T04:54:45;15.07;;;8.00;;
53389;SDS011;39288;42.970;1.524;2022-10-31T04:55:45;13.23;;;7.72;;
53389;SDS011;39288;42.970;1.524;2022-10-31T04:56:46;16.73;;;7.80;;
53389;SDS011;39288;42.970;1.524;2022-10-31T04:57:48;17.30;;;8.30;;
53389;SDS011;39288;42.970;1.524;2022-10-31T04:58:50;11.43;;;7.90;;
53389;SDS011;39288;42.970;1.524;2022-10-31T04:59:50;13.03;;;7.67;;
53389;SDS011;39288;42.970;1.524;2022-10-31T05:00:51;22.43;;;8.40;;
53389;SDS011;39288;42.970;1.524;2022-10-31T05:01:54;14.02;;;7.97;;
53389;SDS011;39288;42.970;1.524;2022-10-31T05:02:56;11.97;;;8.30;;
53389;SDS011;39288;42.970;1.524;2022-10-31T05:03:57;13.18;;;7.28;;
53389;SDS011;39288;42.970;1.524;2022-10-31T05:04:58;13.20;;;8.23;;
53389;SDS011;39288;42.970;1.524;2022-10-31T05:05:58;14.00;;;8.10;;
53389;SDS011;39288;42.970;1.524;2022-10-31T05:06:58;15.13;;;8.17;;
53389;SDS011;39288;42.970;1.524;2022-10-31T05:07:59;13.60;;;7.50;;
53389;SDS011;39288;42.970;1.524;2022-10-31T05:08:59;16.57;;;7.10;;
53389;SDS011;39288;42.970;1.524;2022-10-31T05:10:00;12.47;;;7.13;;
53389;SDS011;39288;42.970;1.524;2022-10-31T05:11:01;14.97;;;7.17;;
53389;SDS011;39288;42.970;1.524;2022-10-31T05:12:02;20.10;;;9.48;;
53389;SDS011;39288;42.970;1.524;2022-10-31T05:13:03;14.00;;;7.37;;
53389;SDS011;39288;42.970;1.524;2022-10-31T05:14:04;10.73;;;7.50;;
53389;SDS011;39288;42.970;1.524;2022-10-31T05:15:05;18.33;;;8.00;;
53389;SDS011;39288;42.970;1.524;2022-10-31T05:16:06;11.37;;;7.13;;
53389;SDS011;39288;42.970;1.524;2022-10-31T05:17:06;16.23;;;7.40;;
53389;SDS011;39288;42.970;1.524;2022-10-31T05:18:07;15.48;;;7.43;;
53389;SDS011;39288;42.970;1.524;2022-10-31T05:19:07;12.43;;;7.10;;
53389;SDS011;39288;42.970;1.524;2022-10-31T05:20:08;16.67;;;7.73;;
53389;SDS011;39288;42.970;1.524;2022-10-31T05:22:10;16.02;;;8.43;;
53389;SDS011;39288;42.970;1.524;2022-10-31T05:23:13;16.70;;;7.72;;
53389;SDS011;39288;42.970;1.524;2022-10-31T05:24:14;17.07;;;7.87;;
53389;SDS011;39288;42.970;1.524;2022-10-31T05:25:15;13.50;;;7.77;;
53389;SDS011;39288;42.970;1.524;2022-10-31T05:26:16;12.38;;;7.43;;
53389;SDS011;39288;42.970;1.524;2022-10-31T05:27:16;15.17;;;8.07;;
53389;SDS011;39288;42.970;1.524;2022-10-31T05:28:17;12.20;;;7.63;;
53389;SDS011;39288;42.970;1.524;2022-10-31T05:29:17;17.57;;;6.93;;
53389;SDS011;39288;42.970;1.524;2022-10-31T05:30:19;12.93;;;7.00;;
53389;SDS011;39288;42.970;1.524;2022-10-31T05:31:21;12.98;;;7.57;;
53389;SDS011;39288;42.970;1.524;2022-10-31T05:32:22;19.10;;;7.37;;
53389;SDS011;39288;42.970;1.524;2022-10-31T05:33:22;13.40;;;7.37;;
53389;SDS011;39288;42.970;1.524;2022-10-31T05:34:23;10.30;;;6.57;;
53389;SDS011;39288;42.970;1.524;2022-10-31T05:35:24;23.07;;;7.20;;
53389;SDS011;39288;42.970;1.524;2022-10-31T05:36:29;20.45;;;8.00;;
53389;SDS011;39288;42.970;1.524;2022-10-31T05:37:29;16.83;;;7.70;;
53389;SDS011;39288;42.970;1.524;2022-10-31T05:38:30;14.70;;;6.97;;
53389;SDS011;39288;42.970;1.524;2022-10-31T05:39:31;9.85;;;6.90;;
53389;SDS011;39288;42.970;1.524;2022-10-31T05:40:31;14.37;;;7.33;;
53389;SDS011;39288;42.970;1.524;2022-10-31T05:41:32;14.33;;;7.27;;
53389;SDS011;39288;42.970;1.524;2022-10-31T05:42:32;15.20;;;7.17;;
53389;SDS011;39288;42.970;1.524;2022-10-31T05:43:32;14.90;;;7.53;;
53389;SDS011;39288;42.970;1.524;2022-10-31T05:44:33;16.87;;;7.67;;
53389;SDS011;39288;42.970;1.524;2022-10-31T05:45:33;16.13;;;7.87;;
53389;SDS011;39288;42.970;1.524;2022-10-31T05:46:34;12.90;;;7.47;;
53389;SDS011;39288;42.970;1.524;2022-10-31T05:47:34;13.00;;;6.67;;
53389;SDS011;39288;42.970;1.524;2022-10-31T05:48:35;15.77;;;7.50;;
53389;SDS011;39288;42.970;1.524;2022-10-31T05:49:35;11.30;;;7.83;;
53389;SDS011;39288;42.970;1.524;2022-10-31T05:50:36;18.00;;;7.67;;
53389;SDS011;39288;42.970;1.524;2022-10-31T05:51:36;12.97;;;6.57;;
53389;SDS011;39288;42.970;1.524;2022-10-31T05:52:37;9.70;;;6.30;;
53389;SDS011;39288;42.970;1.524;2022-10-31T05:53:37;15.93;;;7.60;;
53389;SDS011;39288;42.970;1.524;2022-10-31T05:54:38;13.77;;;6.90;;
53389;SDS011;39288;42.970;1.524;2022-10-31T05:55:38;15.37;;;7.13;;
53389;SDS011;39288;42.970;1.524;2022-10-31T05:56:40;15.85;;;7.97;;
53389;SDS011;39288;42.970;1.524;2022-10-31T05:57:44;13.43;;;7.57;;
53389;SDS011;39288;42.970;1.524;2022-10-31T05:58:44;17.33;;;7.00;;
53389;SDS011;39288;42.970;1.524;2022-10-31T05:59:45;12.57;;;7.67;;
53389;SDS011;39288;42.970;1.524;2022-10-31T06:00:45;15.47;;;7.63;;
53389;SDS011;39288;42.970;1.524;2022-10-31T06:01:45;15.93;;;8.97;;
53389;SDS011;39288;42.970;1.524;2022-10-31T06:02:46;14.37;;;6.80;;
53389;SDS011;39288;42.970;1.524;2022-10-31T06:03:46;15.73;;;7.73;;
53389;SDS011;39288;42.970;1.524;2022-10-31T06:04:47;15.03;;;7.67;;
53389;SDS011;39288;42.970;1.524;2022-10-31T06:05:47;12.75;;;7.35;;
53389;SDS011;39288;42.970;1.524;2022-10-31T06:06:48;10.30;;;6.87;;
53389;SDS011;39288;42.970;1.524;2022-10-31T06:07:51;16.75;;;8.32;;
53389;SDS011;39288;42.970;1.524;2022-10-31T06:08:51;17.40;;;7.57;;
53389;SDS011;39288;42.970;1.524;2022-10-31T06:09:52;20.73;;;7.60;;
53389;SDS011;39288;42.970;1.524;2022-10-31T06:10:55;15.47;;;7.33;;
53389;SDS011;39288;42.970;1.524;2022-10-31T06:11:56;11.60;;;8.00;;
53389;SDS011;39288;42.970;1.524;2022-10-31T06:12:56;16.60;;;8.03;;
53389;SDS011;39288;42.970;1.524;2022-10-31T06:13:57;12.98;;;7.07;;
53389;SDS011;39288;42.970;1.524;2022-10-31T06:14:57;17.83;;;6.73;;
53389;SDS011;39288;42.970;1.524;2022-10-31T06:15:58;11.83;;;6.50;;
53389;SDS011;39288;42.970;1.524;2022-10-31T06:16:58;14.17;;;7.00;;
53389;SDS011;39288;42.970;1.524;2022-10-31T06:18:03;14.65;;;7.47;;
53389;SDS011;39288;42.970;1.524;2022-10-31T06:19:05;12.10;;;7.15;;
53389;SDS011;39288;42.970;1.524;2022-10-31T06:20:06;15.67;;;6.87;;
53389;SDS011;39288;42.970;1.524;2022-10-31T06:21:07;12.93;;;6.97;;
53389;SDS011;39288;42.970;1.524;2022-10-31T06:22:07;16.73;;;7.43;;
53389;SDS011;39288;42.970;1.524;2022-10-31T06:23:08;21.93;;;8.00;;
53389;SDS011;39288;42.970;1.524;2022-10-31T06:24:08;19.03;;;6.67;;
53389;SDS011;39288;42.970;1.524;2022-10-31T06:25:09;14.20;;;7.60;;
53389;SDS011;39288;42.970;1.524;2022-10-31T06:26:09;21.77;;;7.33;;
53389;SDS011;39288;42.970;1.524;2022-10-31T06:27:10;12.07;;;6.37;;
53389;SDS011;39288;42.970;1.524;2022-10-31T06:28:10;14.60;;;6.47;;
53389;SDS011;39288;42.970;1.524;2022-10-31T06:29:11;14.90;;;7.73;;
53389;SDS011;39288;42.970;1.524;2022-10-31T06:30:11;13.03;;;6.93;;
53389;SDS011;39288;42.970;1.524;2022-10-31T06:31:12;14.83;;;6.80;;
53389;SDS011;39288;42.970;1.524;2022-10-31T06:32:16;18.43;;;7.37;;
53389;SDS011;39288;42.970;1.524;2022-10-31T06:33:17;16.98;;;7.07;;
53389;SDS011;39288;42.970;1.524;2022-10-31T06:34:17;16.20;;;6.17;;
53389;SDS011;39288;42.970;1.524;2022-10-31T06:35:18;14.10;;;6.83;;
53389;SDS011;39288;42.970;1.524;2022-10-31T06:36:18;16.50;;;7.23;;
53389;SDS011;39288;42.970;1.524;2022-10-31T06:37:19;15.60;;;7.27;;